Admire, Kansas
Current Conditions -  °F | °C
As of 2:53 AM on Wednesday 26 Nov 2014 (Local Time) from KEMP Reporting Station
Overcast Overcast  
Wind Chill: 36°   Ceiling: 7500
Heat Index: 39°   Visibility: 10mi
Dew Point: 25°   Wind: 5mph
Humidity: 57%   Direction: 240°WSW
Pressure: 29.95"   Gusts: NA
Location:  38.64°N, 96.1°W
Report Text: KEMP 260853Z AUTO 24004KT 10SM BKN075 OVC100 04/M04 A2995 RMK AO2 SLP149 T00391039 53001
Loading
Personal Weather Stations






























Interactive Weather Map New forecast layout! Learn more

10-Day Weather Forecast

Advertisements
Track Severe Weather on mobile